sensor_id;sensor_type;location;lat;lon;timestamp;P1;durP1;ratioP1;P2;durP2;ratioP2
49828;SDS011;35723;51.194;5.112;2022-08-11T00:01:19;9.50;;;3.00;;
49828;SDS011;35723;51.194;5.112;2022-08-11T00:03:59;7.45;;;3.00;;
49828;SDS011;35723;51.194;5.112;2022-08-11T00:06:29;5.20;;;2.95;;
49828;SDS011;35723;51.194;5.112;2022-08-11T00:08:57;10.48;;;2.85;;
49828;SDS011;35723;51.194;5.112;2022-08-11T00:14:25;6.82;;;3.30;;
49828;SDS011;35723;51.194;5.112;2022-08-11T00:17:03;7.68;;;3.17;;
49828;SDS011;35723;51.194;5.112;2022-08-11T00:19:35;8.30;;;3.22;;
49828;SDS011;35723;51.194;5.112;2022-08-11T00:22:03;11.60;;;3.20;;
49828;SDS011;35723;51.194;5.112;2022-08-11T00:24:34;13.38;;;3.28;;
49828;SDS011;35723;51.194;5.112;2022-08-11T00:27:04;7.90;;;3.10;;
49828;SDS011;35723;51.194;5.112;2022-08-11T00:29:31;7.20;;;3.00;;
49828;SDS011;35723;51.194;5.112;2022-08-11T00:31:59;8.55;;;3.10;;
49828;SDS011;35723;51.194;5.112;2022-08-11T00:34:28;11.35;;;3.22;;
49828;SDS011;35723;51.194;5.112;2022-08-11T00:36:56;9.65;;;3.40;;
49828;SDS011;35723;51.194;5.112;2022-08-11T00:39:25;10.93;;;3.33;;
49828;SDS011;35723;51.194;5.112;2022-08-11T00:42:03;11.18;;;3.60;;
49828;SDS011;35723;51.194;5.112;2022-08-11T00:44:46;7.57;;;3.20;;
49828;SDS011;35723;51.194;5.112;2022-08-11T00:53:06;7.82;;;3.08;;
49828;SDS011;35723;51.194;5.112;2022-08-11T01:01:09;10.15;;;3.55;;
49828;SDS011;35723;51.194;5.112;2022-08-11T01:48:25;9.82;;;3.50;;
49828;SDS011;35723;51.194;5.112;2022-08-11T01:56:22;9.90;;;3.88;;
49828;SDS011;35723;51.194;5.112;2022-08-11T02:09:23;12.20;;;3.70;;
49828;SDS011;35723;51.194;5.112;2022-08-11T02:11:58;12.63;;;3.88;;
49828;SDS011;35723;51.194;5.112;2022-08-11T02:14:38;12.68;;;4.10;;
49828;SDS011;35723;51.194;5.112;2022-08-11T02:17:21;15.18;;;4.13;;
49828;SDS011;35723;51.194;5.112;2022-08-11T02:26:04;9.23;;;4.00;;
49828;SDS011;35723;51.194;5.112;2022-08-11T03:07:33;10.73;;;4.05;;
49828;SDS011;35723;51.194;5.112;2022-08-11T03:18:53;13.32;;;4.68;;
49828;SDS011;35723;51.194;5.112;2022-08-11T03:21:45;10.20;;;4.50;;
49828;SDS011;35723;51.194;5.112;2022-08-11T03:27:59;9.85;;;4.18;;
49828;SDS011;35723;51.194;5.112;2022-08-11T03:30:15;9.82;;;4.40;;
49828;SDS011;35723;51.194;5.112;2022-08-11T03:41:51;9.38;;;3.78;;
49828;SDS011;35723;51.194;5.112;2022-08-11T03:47:30;9.68;;;4.35;;
49828;SDS011;35723;51.194;5.112;2022-08-11T04:07:11;14.15;;;4.88;;
49828;SDS011;35723;51.194;5.112;2022-08-11T04:18:35;12.93;;;4.70;;
49828;SDS011;35723;51.194;5.112;2022-08-11T04:30:00;14.88;;;5.43;;
49828;SDS011;35723;51.194;5.112;2022-08-11T04:38:32;14.35;;;4.72;;
49828;SDS011;35723;51.194;5.112;2022-08-11T04:44:47;13.13;;;4.82;;
49828;SDS011;35723;51.194;5.112;2022-08-11T04:47:37;13.15;;;5.03;;
49828;SDS011;35723;51.194;5.112;2022-08-11T04:57:37;13.30;;;5.55;;
49828;SDS011;35723;51.194;5.112;2022-08-11T05:10:06;16.48;;;4.85;;
49828;SDS011;35723;51.194;5.112;2022-08-11T05:13:04;11.65;;;4.90;;
49828;SDS011;35723;51.194;5.112;2022-08-11T05:15:54;16.27;;;4.97;;
49828;SDS011;35723;51.194;5.112;2022-08-11T05:18:47;14.23;;;5.47;;
49828;SDS011;35723;51.194;5.112;2022-08-11T05:21:34;15.20;;;5.35;;
49828;SDS011;35723;51.194;5.112;2022-08-11T05:24:32;14.30;;;5.43;;
49828;SDS011;35723;51.194;5.112;2022-08-11T05:30:12;14.68;;;5.30;;
49828;SDS011;35723;51.194;5.112;2022-08-11T05:32:59;17.88;;;5.90;;
49828;SDS011;35723;51.194;5.112;2022-08-11T05:35:49;14.27;;;6.05;;
49828;SDS011;35723;51.194;5.112;2022-08-11T05:38:25;13.15;;;5.90;;
49828;SDS011;35723;51.194;5.112;2022-08-11T05:41:12;17.95;;;5.57;;
49828;SDS011;35723;51.194;5.112;2022-08-11T05:44:01;16.52;;;5.38;;
49828;SDS011;35723;51.194;5.112;2022-08-11T05:46:47;15.68;;;5.90;;
49828;SDS011;35723;51.194;5.112;2022-08-11T05:49:32;15.90;;;6.13;;
49828;SDS011;35723;51.194;5.112;2022-08-11T05:52:22;13.50;;;5.15;;
49828;SDS011;35723;51.194;5.112;2022-08-11T05:55:08;17.77;;;5.90;;
49828;SDS011;35723;51.194;5.112;2022-08-11T05:58:03;19.02;;;6.60;;
49828;SDS011;35723;51.194;5.112;2022-08-11T06:00:38;14.00;;;5.80;;
49828;SDS011;35723;51.194;5.112;2022-08-11T06:03:06;15.13;;;6.00;;
49828;SDS011;35723;51.194;5.112;2022-08-11T06:05:38;16.42;;;5.72;;
49828;SDS011;35723;51.194;5.112;2022-08-11T06:08:08;13.20;;;5.43;;
49828;SDS011;35723;51.194;5.112;2022-08-11T06:10:37;17.50;;;5.63;;
49828;SDS011;35723;51.194;5.112;2022-08-11T06:13:05;15.15;;;5.30;;
49828;SDS011;35723;51.194;5.112;2022-08-11T06:15:33;17.77;;;6.00;;
49828;SDS011;35723;51.194;5.112;2022-08-11T06:18:08;17.77;;;5.80;;
49828;SDS011;35723;51.194;5.112;2022-08-11T06:20:46;16.00;;;5.82;;
49828;SDS011;35723;51.194;5.112;2022-08-11T06:23:20;18.90;;;5.53;;
49828;SDS011;35723;51.194;5.112;2022-08-11T06:25:52;20.23;;;6.18;;
49828;SDS011;35723;51.194;5.112;2022-08-11T06:28:19;18.83;;;6.25;;
49828;SDS011;35723;51.194;5.112;2022-08-11T06:30:55;15.70;;;5.85;;
49828;SDS011;35723;51.194;5.112;2022-08-11T06:44:30;16.98;;;5.47;;
49828;SDS011;35723;51.194;5.112;2022-08-11T06:47:04;15.80;;;5.90;;
49828;SDS011;35723;51.194;5.112;2022-08-11T06:49:41;13.02;;;5.60;;
49828;SDS011;35723;51.194;5.112;2022-08-11T06:52:37;11.65;;;5.28;;
49828;SDS011;35723;51.194;5.112;2022-08-11T06:55:07;15.15;;;5.85;;
49828;SDS011;35723;51.194;5.112;2022-08-11T06:57:37;22.40;;;6.03;;
49828;SDS011;35723;51.194;5.112;2022-08-11T07:00:23;13.48;;;5.70;;
49828;SDS011;35723;51.194;5.112;2022-08-11T07:02:56;15.65;;;6.18;;
49828;SDS011;35723;51.194;5.112;2022-08-11T07:08:15;18.13;;;5.97;;
49828;SDS011;35723;51.194;5.112;2022-08-11T07:14:10;19.15;;;6.18;;
49828;SDS011;35723;51.194;5.112;2022-08-11T07:17:00;16.45;;;5.20;;
49828;SDS011;35723;51.194;5.112;2022-08-11T07:19:28;17.35;;;5.28;;
49828;SDS011;35723;51.194;5.112;2022-08-11T07:22:14;15.05;;;5.35;;
49828;SDS011;35723;51.194;5.112;2022-08-11T07:25:02;27.50;;;5.55;;
49828;SDS011;35723;51.194;5.112;2022-08-11T07:27:57;21.85;;;5.57;;
49828;SDS011;35723;51.194;5.112;2022-08-11T07:30:45;19.27;;;5.13;;
49828;SDS011;35723;51.194;5.112;2022-08-11T07:33:12;18.88;;;5.32;;
49828;SDS011;35723;51.194;5.112;2022-08-11T07:35:44;15.20;;;5.22;;
49828;SDS011;35723;51.194;5.112;2022-08-11T07:38:19;20.30;;;5.30;;
49828;SDS011;35723;51.194;5.112;2022-08-11T07:40:47;19.25;;;5.50;;
49828;SDS011;35723;51.194;5.112;2022-08-11T07:43:14;13.38;;;5.10;;
49828;SDS011;35723;51.194;5.112;2022-08-11T07:45:44;21.35;;;5.25;;
49828;SDS011;35723;51.194;5.112;2022-08-11T07:48:29;15.13;;;4.93;;
49828;SDS011;35723;51.194;5.112;2022-08-11T07:51:20;16.15;;;4.80;;
49828;SDS011;35723;51.194;5.112;2022-08-11T07:54:05;12.68;;;4.60;;
49828;SDS011;35723;51.194;5.112;2022-08-11T07:56:33;17.30;;;4.90;;
49828;SDS011;35723;51.194;5.112;2022-08-11T07:59:00;24.38;;;5.28;;
49828;SDS011;35723;51.194;5.112;2022-08-11T08:01:45;18.88;;;4.70;;
49828;SDS011;35723;51.194;5.112;2022-08-11T08:04:30;16.27;;;4.68;;
49828;SDS011;35723;51.194;5.112;2022-08-11T08:07:15;21.00;;;5.22;;
49828;SDS011;35723;51.194;5.112;2022-08-11T08:10:04;13.60;;;4.50;;
49828;SDS011;35723;51.194;5.112;2022-08-11T08:12:49;15.52;;;4.90;;
49828;SDS011;35723;51.194;5.112;2022-08-11T08:15:34;16.88;;;4.90;;
49828;SDS011;35723;51.194;5.112;2022-08-11T08:18:19;18.05;;;4.95;;
49828;SDS011;35723;51.194;5.112;2022-08-11T08:20:48;15.70;;;4.78;;
49828;SDS011;35723;51.194;5.112;2022-08-11T08:23:15;19.20;;;4.97;;
49828;SDS011;35723;51.194;5.112;2022-08-11T08:25:57;17.77;;;4.60;;
49828;SDS011;35723;51.194;5.112;2022-08-11T08:28:28;12.10;;;4.85;;
49828;SDS011;35723;51.194;5.112;2022-08-11T08:30:55;18.55;;;4.90;;
49828;SDS011;35723;51.194;5.112;2022-08-11T08:33:24;19.92;;;4.97;;
49828;SDS011;35723;51.194;5.112;2022-08-11T08:35:53;18.08;;;4.47;;
49828;SDS011;35723;51.194;5.112;2022-08-11T08:38:40;19.38;;;4.93;;
49828;SDS011;35723;51.194;5.112;2022-08-11T08:41:13;14.73;;;4.90;;
49828;SDS011;35723;51.194;5.112;2022-08-11T08:43:44;14.82;;;4.15;;
49828;SDS011;35723;51.194;5.112;2022-08-11T08:46:16;13.30;;;4.50;;
49828;SDS011;35723;51.194;5.112;2022-08-11T08:48:46;20.77;;;4.90;;
49828;SDS011;35723;51.194;5.112;2022-08-11T08:51:13;13.23;;;4.30;;
49828;SDS011;35723;51.194;5.112;2022-08-11T08:53:59;16.90;;;4.78;;
49828;SDS011;35723;51.194;5.112;2022-08-11T08:56:34;14.00;;;4.70;;
49828;SDS011;35723;51.194;5.112;2022-08-11T08:59:04;15.82;;;4.18;;
49828;SDS011;35723;51.194;5.112;2022-08-11T09:01:32;21.02;;;4.65;;
49828;SDS011;35723;51.194;5.112;2022-08-11T09:04:04;13.57;;;4.13;;
49828;SDS011;35723;51.194;5.112;2022-08-11T09:06:38;11.25;;;4.32;;
49828;SDS011;35723;51.194;5.112;2022-08-11T09:09:06;9.65;;;4.40;;
49828;SDS011;35723;51.194;5.112;2022-08-11T09:11:34;14.43;;;4.22;;
49828;SDS011;35723;51.194;5.112;2022-08-11T09:14:20;13.55;;;4.40;;
49828;SDS011;35723;51.194;5.112;2022-08-11T09:16:47;13.38;;;4.35;;
49828;SDS011;35723;51.194;5.112;2022-08-11T09:19:14;14.82;;;3.92;;
49828;SDS011;35723;51.194;5.112;2022-08-11T09:21:50;9.27;;;3.90;;
49828;SDS011;35723;51.194;5.112;2022-08-11T09:24:36;14.20;;;4.72;;
49828;SDS011;35723;51.194;5.112;2022-08-11T09:27:26;12.35;;;4.25;;
49828;SDS011;35723;51.194;5.112;2022-08-11T09:29:52;14.40;;;4.68;;
49828;SDS011;35723;51.194;5.112;2022-08-11T09:32:22;13.50;;;4.28;;
49828;SDS011;35723;51.194;5.112;2022-08-11T09:34:49;12.48;;;4.30;;
49828;SDS011;35723;51.194;5.112;2022-08-11T09:37:16;18.70;;;4.35;;
49828;SDS011;35723;51.194;5.112;2022-08-11T09:40:03;16.58;;;4.10;;
49828;SDS011;35723;51.194;5.112;2022-08-11T09:42:50;16.52;;;4.00;;
49828;SDS011;35723;51.194;5.112;2022-08-11T09:45:34;14.50;;;3.95;;
49828;SDS011;35723;51.194;5.112;2022-08-11T09:48:01;8.82;;;4.20;;
49828;SDS011;35723;51.194;5.112;2022-08-11T09:50:29;15.38;;;4.38;;
49828;SDS011;35723;51.194;5.112;2022-08-11T09:52:56;12.00;;;3.88;;
49828;SDS011;35723;51.194;5.112;2022-08-11T09:55:23;12.88;;;4.20;;
49828;SDS011;35723;51.194;5.112;2022-08-11T09:57:49;20.95;;;4.82;;
49828;SDS011;35723;51.194;5.112;2022-08-11T10:00:34;11.98;;;3.90;;
49828;SDS011;35723;51.194;5.112;2022-08-11T10:03:02;15.63;;;4.22;;
49828;SDS011;35723;51.194;5.112;2022-08-11T10:05:32;14.00;;;4.25;;
49828;SDS011;35723;51.194;5.112;2022-08-11T10:08:17;14.40;;;4.28;;
49828;SDS011;35723;51.194;5.112;2022-08-11T10:10:45;9.02;;;3.97;;
49828;SDS011;35723;51.194;5.112;2022-08-11T10:13:15;11.70;;;4.00;;
49828;SDS011;35723;51.194;5.112;2022-08-11T10:15:45;13.88;;;4.03;;
49828;SDS011;35723;51.194;5.112;2022-08-11T10:18:19;13.30;;;4.10;;
49828;SDS011;35723;51.194;5.112;2022-08-11T10:21:29;11.52;;;3.85;;
49828;SDS011;35723;51.194;5.112;2022-08-11T10:24:00;8.80;;;3.83;;
49828;SDS011;35723;51.194;5.112;2022-08-11T10:26:46;13.82;;;3.95;;
49828;SDS011;35723;51.194;5.112;2022-08-11T10:29:40;13.55;;;4.00;;
49828;SDS011;35723;51.194;5.112;2022-08-11T10:32:24;11.00;;;3.83;;
49828;SDS011;35723;51.194;5.112;2022-08-11T10:35:11;12.48;;;3.97;;
49828;SDS011;35723;51.194;5.112;2022-08-11T10:37:38;13.98;;;3.90;;
49828;SDS011;35723;51.194;5.112;2022-08-11T10:40:06;11.35;;;3.70;;
49828;SDS011;35723;51.194;5.112;2022-08-11T10:42:35;16.17;;;4.00;;
49828;SDS011;35723;51.194;5.112;2022-08-11T10:45:20;11.65;;;3.70;;
49828;SDS011;35723;51.194;5.112;2022-08-11T10:48:06;12.05;;;3.90;;
49828;SDS011;35723;51.194;5.112;2022-08-11T10:50:32;15.82;;;3.83;;
49828;SDS011;35723;51.194;5.112;2022-08-11T10:53:16;13.10;;;3.72;;
49828;SDS011;35723;51.194;5.112;2022-08-11T10:56:02;8.45;;;3.30;;
49828;SDS011;35723;51.194;5.112;2022-08-11T10:58:48;13.05;;;3.95;;
49828;SDS011;35723;51.194;5.112;2022-08-11T11:03:59;18.15;;;3.85;;
49828;SDS011;35723;51.194;5.112;2022-08-11T11:11:41;11.05;;;3.53;;
49828;SDS011;35723;51.194;5.112;2022-08-11T11:14:31;20.23;;;4.43;;
49828;SDS011;35723;51.194;5.112;2022-08-11T11:20:17;9.13;;;3.10;;
49828;SDS011;35723;51.194;5.112;2022-08-11T11:22:54;10.63;;;3.40;;
49828;SDS011;35723;51.194;5.112;2022-08-11T11:33:39;10.73;;;3.65;;
49828;SDS011;35723;51.194;5.112;2022-08-11T11:36:14;9.73;;;3.53;;
49828;SDS011;35723;51.194;5.112;2022-08-11T11:38:49;11.88;;;3.60;;
49828;SDS011;35723;51.194;5.112;2022-08-11T11:41:15;10.05;;;3.15;;
49828;SDS011;35723;51.194;5.112;2022-08-11T11:43:54;11.10;;;3.40;;
49828;SDS011;35723;51.194;5.112;2022-08-11T11:46:22;8.07;;;3.25;;
49828;SDS011;35723;51.194;5.112;2022-08-11T11:48:51;15.95;;;3.70;;
49828;SDS011;35723;51.194;5.112;2022-08-11T11:51:21;9.85;;;3.20;;
49828;SDS011;35723;51.194;5.112;2022-08-11T11:53:48;12.80;;;3.00;;
49828;SDS011;35723;51.194;5.112;2022-08-11T11:56:15;7.75;;;3.10;;
49828;SDS011;35723;51.194;5.112;2022-08-11T11:58:41;9.70;;;3.00;;
49828;SDS011;35723;51.194;5.112;2022-08-11T12:01:26;8.00;;;2.90;;
49828;SDS011;35723;51.194;5.112;2022-08-11T12:03:53;11.90;;;3.38;;
49828;SDS011;35723;51.194;5.112;2022-08-11T12:06:22;9.98;;;3.13;;
49828;SDS011;35723;51.194;5.112;2022-08-11T12:08:50;10.02;;;3.30;;
49828;SDS011;35723;51.194;5.112;2022-08-11T12:11:18;7.40;;;3.20;;
49828;SDS011;35723;51.194;5.112;2022-08-11T12:14:05;9.18;;;3.15;;
49828;SDS011;35723;51.194;5.112;2022-08-11T12:16:32;7.15;;;3.00;;
49828;SDS011;35723;51.194;5.112;2022-08-11T12:19:02;10.88;;;3.05;;
49828;SDS011;35723;51.194;5.112;2022-08-11T12:21:30;9.48;;;3.40;;
49828;SDS011;35723;51.194;5.112;2022-08-11T12:23:59;7.15;;;3.13;;
49828;SDS011;35723;51.194;5.112;2022-08-11T12:26:44;9.23;;;2.92;;
49828;SDS011;35723;51.194;5.112;2022-08-11T12:29:17;10.35;;;3.30;;
49828;SDS011;35723;51.194;5.112;2022-08-11T12:31:44;10.20;;;3.38;;
49828;SDS011;35723;51.194;5.112;2022-08-11T12:34:14;6.90;;;3.10;;
49828;SDS011;35723;51.194;5.112;2022-08-11T12:39:15;9.70;;;3.10;;
49828;SDS011;35723;51.194;5.112;2022-08-11T12:41:45;11.40;;;3.00;;
49828;SDS011;35723;51.194;5.112;2022-08-11T12:44:30;11.75;;;3.20;;
49828;SDS011;35723;51.194;5.112;2022-08-11T12:47:18;13.68;;;3.40;;
49828;SDS011;35723;51.194;5.112;2022-08-11T12:49:48;10.13;;;3.42;;
49828;SDS011;35723;51.194;5.112;2022-08-11T12:52:34;10.10;;;3.28;;
49828;SDS011;35723;51.194;5.112;2022-08-11T12:55:15;11.30;;;3.30;;
49828;SDS011;35723;51.194;5.112;2022-08-11T12:58:06;41.33;;;4.80;;
49828;SDS011;35723;51.194;5.112;2022-08-11T13:00:40;37.30;;;4.03;;
49828;SDS011;35723;51.194;5.112;2022-08-11T13:03:24;16.65;;;3.17;;
49828;SDS011;35723;51.194;5.112;2022-08-11T13:06:09;23.55;;;3.40;;
49828;SDS011;35723;51.194;5.112;2022-08-11T13:08:36;10.65;;;3.55;;
49828;SDS011;35723;51.194;5.112;2022-08-11T13:11:03;47.17;;;4.63;;
49828;SDS011;35723;51.194;5.112;2022-08-11T13:13:49;9.50;;;3.03;;
49828;SDS011;35723;51.194;5.112;2022-08-11T13:16:18;8.77;;;3.10;;
49828;SDS011;35723;51.194;5.112;2022-08-11T13:18:56;12.52;;;3.35;;
49828;SDS011;35723;51.194;5.112;2022-08-11T13:21:24;11.93;;;3.30;;
49828;SDS011;35723;51.194;5.112;2022-08-11T13:23:52;13.80;;;3.25;;
49828;SDS011;35723;51.194;5.112;2022-08-11T13:26:21;10.30;;;3.10;;
49828;SDS011;35723;51.194;5.112;2022-08-11T13:28:48;10.98;;;3.15;;
49828;SDS011;35723;51.194;5.112;2022-08-11T13:31:14;7.10;;;3.03;;
49828;SDS011;35723;51.194;5.112;2022-08-11T13:33:42;10.25;;;3.15;;
49828;SDS011;35723;51.194;5.112;2022-08-11T13:36:10;10.27;;;3.10;;
49828;SDS011;35723;51.194;5.112;2022-08-11T13:38:37;7.60;;;3.10;;
49828;SDS011;35723;51.194;5.112;2022-08-11T13:41:05;6.20;;;3.00;;
49828;SDS011;35723;51.194;5.112;2022-08-11T13:43:51;10.23;;;3.17;;
49828;SDS011;35723;51.194;5.112;2022-08-11T13:46:18;5.25;;;2.85;;
49828;SDS011;35723;51.194;5.112;2022-08-11T13:48:46;7.00;;;2.80;;
49828;SDS011;35723;51.194;5.112;2022-08-11T13:51:13;5.18;;;2.85;;
49828;SDS011;35723;51.194;5.112;2022-08-11T13:54:04;12.80;;;3.20;;
49828;SDS011;35723;51.194;5.112;2022-08-11T13:56:39;9.43;;;2.80;;
49828;SDS011;35723;51.194;5.112;2022-08-11T13:59:08;9.57;;;2.97;;
49828;SDS011;35723;51.194;5.112;2022-08-11T14:01:38;9.90;;;2.80;;
49828;SDS011;35723;51.194;5.112;2022-08-11T14:04:08;8.75;;;2.83;;
49828;SDS011;35723;51.194;5.112;2022-08-11T14:06:42;10.93;;;3.30;;
49828;SDS011;35723;51.194;5.112;2022-08-11T14:09:12;10.35;;;3.30;;
49828;SDS011;35723;51.194;5.112;2022-08-11T14:11:44;14.85;;;3.20;;
49828;SDS011;35723;51.194;5.112;2022-08-11T14:14:30;9.32;;;3.15;;
49828;SDS011;35723;51.194;5.112;2022-08-11T14:16:58;9.75;;;3.20;;
49828;SDS011;35723;51.194;5.112;2022-08-11T14:19:29;10.60;;;3.25;;
49828;SDS011;35723;51.194;5.112;2022-08-11T14:21:56;7.90;;;3.00;;
49828;SDS011;35723;51.194;5.112;2022-08-11T14:24:31;6.45;;;2.90;;
49828;SDS011;35723;51.194;5.112;2022-08-11T14:27:01;8.18;;;2.90;;
49828;SDS011;35723;51.194;5.112;2022-08-11T14:29:29;12.38;;;3.20;;
49828;SDS011;35723;51.194;5.112;2022-08-11T14:32:02;8.90;;;2.90;;
49828;SDS011;35723;51.194;5.112;2022-08-11T14:34:32;5.25;;;3.00;;
49828;SDS011;35723;51.194;5.112;2022-08-11T14:37:02;11.43;;;3.10;;
49828;SDS011;35723;51.194;5.112;2022-08-11T14:39:31;11.82;;;3.30;;
49828;SDS011;35723;51.194;5.112;2022-08-11T14:42:03;12.02;;;3.65;;
49828;SDS011;35723;51.194;5.112;2022-08-11T14:44:50;9.20;;;3.20;;
49828;SDS011;35723;51.194;5.112;2022-08-11T14:47:38;12.70;;;3.35;;
49828;SDS011;35723;51.194;5.112;2022-08-11T14:50:06;14.00;;;3.78;;
49828;SDS011;35723;51.194;5.112;2022-08-11T14:52:38;18.95;;;3.60;;
49828;SDS011;35723;51.194;5.112;2022-08-11T14:55:08;14.85;;;3.50;;
49828;SDS011;35723;51.194;5.112;2022-08-11T14:57:54;8.70;;;3.35;;
49828;SDS011;35723;51.194;5.112;2022-08-11T15:00:20;12.80;;;3.50;;
49828;SDS011;35723;51.194;5.112;2022-08-11T15:02:46;10.00;;;3.63;;
49828;SDS011;35723;51.194;5.112;2022-08-11T15:05:34;13.63;;;3.80;;
49828;SDS011;35723;51.194;5.112;2022-08-11T15:08:09;11.20;;;3.65;;
49828;SDS011;35723;51.194;5.112;2022-08-11T15:10:38;14.25;;;3.67;;
49828;SDS011;35723;51.194;5.112;2022-08-11T15:13:04;9.35;;;3.40;;
49828;SDS011;35723;51.194;5.112;2022-08-11T15:15:30;8.75;;;3.47;;
49828;SDS011;35723;51.194;5.112;2022-08-11T15:18:16;15.10;;;3.83;;
49828;SDS011;35723;51.194;5.112;2022-08-11T15:20:44;8.13;;;3.30;;
49828;SDS011;35723;51.194;5.112;2022-08-11T15:23:29;9.85;;;3.42;;
49828;SDS011;35723;51.194;5.112;2022-08-11T15:26:14;9.32;;;3.40;;
49828;SDS011;35723;51.194;5.112;2022-08-11T15:28:45;9.27;;;3.67;;
49828;SDS011;35723;51.194;5.112;2022-08-11T15:31:31;11.25;;;3.25;;
49828;SDS011;35723;51.194;5.112;2022-08-11T15:34:17;10.38;;;3.33;;
49828;SDS011;35723;51.194;5.112;2022-08-11T15:37:08;9.48;;;3.60;;
49828;SDS011;35723;51.194;5.112;2022-08-11T15:39:51;8.50;;;3.55;;
49828;SDS011;35723;51.194;5.112;2022-08-11T15:42:42;18.23;;;3.78;;
49828;SDS011;35723;51.194;5.112;2022-08-11T15:45:39;10.70;;;3.65;;
49828;SDS011;35723;51.194;5.112;2022-08-11T15:50:57;11.32;;;3.80;;
49828;SDS011;35723;51.194;5.112;2022-08-11T15:53:44;10.25;;;3.67;;
49828;SDS011;35723;51.194;5.112;2022-08-11T15:56:14;10.63;;;3.50;;
49828;SDS011;35723;51.194;5.112;2022-08-11T15:58:42;9.07;;;3.53;;
49828;SDS011;35723;51.194;5.112;2022-08-11T16:01:29;14.10;;;3.50;;
49828;SDS011;35723;51.194;5.112;2022-08-11T16:04:19;10.32;;;3.67;;
49828;SDS011;35723;51.194;5.112;2022-08-11T16:07:04;8.02;;;3.45;;
49828;SDS011;35723;51.194;5.112;2022-08-11T16:09:46;10.77;;;3.45;;
49828;SDS011;35723;51.194;5.112;2022-08-11T16:12:19;7.85;;;3.28;;
49828;SDS011;35723;51.194;5.112;2022-08-11T16:14:51;8.40;;;3.67;;
49828;SDS011;35723;51.194;5.112;2022-08-11T16:17:43;8.13;;;3.50;;
49828;SDS011;35723;51.194;5.112;2022-08-11T16:20:11;7.30;;;3.28;;
49828;SDS011;35723;51.194;5.112;2022-08-11T16:22:38;11.23;;;3.60;;
49828;SDS011;35723;51.194;5.112;2022-08-11T16:25:11;9.52;;;3.60;;
49828;SDS011;35723;51.194;5.112;2022-08-11T16:27:40;8.75;;;3.38;;
49828;SDS011;35723;51.194;5.112;2022-08-11T16:30:09;13.68;;;3.72;;
49828;SDS011;35723;51.194;5.112;2022-08-11T16:32:36;8.13;;;3.30;;
49828;SDS011;35723;51.194;5.112;2022-08-11T16:35:05;13.05;;;3.35;;
49828;SDS011;35723;51.194;5.112;2022-08-11T16:37:52;11.65;;;3.40;;
49828;SDS011;35723;51.194;5.112;2022-08-11T16:40:38;10.25;;;3.42;;
49828;SDS011;35723;51.194;5.112;2022-08-11T16:43:06;13.30;;;3.40;;
49828;SDS011;35723;51.194;5.112;2022-08-11T16:45:54;10.23;;;3.35;;
49828;SDS011;35723;51.194;5.112;2022-08-11T16:48:40;9.73;;;3.30;;
49828;SDS011;35723;51.194;5.112;2022-08-11T16:51:07;11.35;;;3.30;;
49828;SDS011;35723;51.194;5.112;2022-08-11T16:53:36;14.73;;;3.72;;
49828;SDS011;35723;51.194;5.112;2022-08-11T16:56:03;14.88;;;3.40;;
49828;SDS011;35723;51.194;5.112;2022-08-11T16:58:31;10.95;;;3.67;;
49828;SDS011;35723;51.194;5.112;2022-08-11T17:01:19;10.25;;;3.47;;
49828;SDS011;35723;51.194;5.112;2022-08-11T17:03:50;9.45;;;3.35;;
49828;SDS011;35723;51.194;5.112;2022-08-11T17:06:40;12.20;;;3.60;;
49828;SDS011;35723;51.194;5.112;2022-08-11T17:09:29;11.85;;;3.55;;
49828;SDS011;35723;51.194;5.112;2022-08-11T17:12:18;8.65;;;3.83;;
49828;SDS011;35723;51.194;5.112;2022-08-11T17:15:06;13.68;;;3.85;;
49828;SDS011;35723;51.194;5.112;2022-08-11T17:17:57;10.65;;;3.60;;
49828;SDS011;35723;51.194;5.112;2022-08-11T17:20:24;15.20;;;4.13;;
49828;SDS011;35723;51.194;5.112;2022-08-11T17:22:52;10.73;;;3.67;;
49828;SDS011;35723;51.194;5.112;2022-08-11T17:25:37;9.65;;;3.80;;
49828;SDS011;35723;51.194;5.112;2022-08-11T17:28:04;8.55;;;3.42;;
49828;SDS011;35723;51.194;5.112;2022-08-11T17:30:32;8.65;;;4.03;;
49828;SDS011;35723;51.194;5.112;2022-08-11T17:33:17;10.50;;;4.10;;
49828;SDS011;35723;51.194;5.112;2022-08-11T17:36:02;11.10;;;3.75;;
49828;SDS011;35723;51.194;5.112;2022-08-11T17:38:29;8.75;;;4.00;;
49828;SDS011;35723;51.194;5.112;2022-08-11T17:40:59;12.75;;;3.88;;
49828;SDS011;35723;51.194;5.112;2022-08-11T17:43:45;10.48;;;4.20;;
49828;SDS011;35723;51.194;5.112;2022-08-11T17:46:31;12.95;;;4.07;;
49828;SDS011;35723;51.194;5.112;2022-08-11T17:49:16;9.57;;;4.00;;
49828;SDS011;35723;51.194;5.112;2022-08-11T17:51:44;9.95;;;3.90;;
49828;SDS011;35723;51.194;5.112;2022-08-11T17:54:30;12.35;;;3.95;;
49828;SDS011;35723;51.194;5.112;2022-08-11T17:57:17;12.40;;;4.00;;
49828;SDS011;35723;51.194;5.112;2022-08-11T18:00:03;11.25;;;3.80;;
49828;SDS011;35723;51.194;5.112;2022-08-11T18:02:34;10.50;;;3.78;;
49828;SDS011;35723;51.194;5.112;2022-08-11T18:05:21;11.40;;;3.97;;
49828;SDS011;35723;51.194;5.112;2022-08-11T18:07:50;15.88;;;3.85;;
49828;SDS011;35723;51.194;5.112;2022-08-11T18:10:39;10.63;;;3.80;;
49828;SDS011;35723;51.194;5.112;2022-08-11T18:13:24;8.85;;;3.75;;
49828;SDS011;35723;51.194;5.112;2022-08-11T18:16:11;12.90;;;4.30;;
49828;SDS011;35723;51.194;5.112;2022-08-11T18:18:56;13.27;;;3.80;;
49828;SDS011;35723;51.194;5.112;2022-08-11T18:21:44;14.57;;;4.22;;
49828;SDS011;35723;51.194;5.112;2022-08-11T18:24:35;8.27;;;3.83;;
49828;SDS011;35723;51.194;5.112;2022-08-11T18:27:21;17.23;;;3.97;;
49828;SDS011;35723;51.194;5.112;2022-08-11T18:30:08;9.57;;;3.67;;
49828;SDS011;35723;51.194;5.112;2022-08-11T18:32:53;12.02;;;4.13;;
49828;SDS011;35723;51.194;5.112;2022-08-11T18:35:41;15.25;;;3.88;;
49828;SDS011;35723;51.194;5.112;2022-08-11T18:38:26;11.38;;;3.78;;
49828;SDS011;35723;51.194;5.112;2022-08-11T18:41:11;15.20;;;4.10;;
49828;SDS011;35723;51.194;5.112;2022-08-11T18:43:58;12.15;;;3.78;;
49828;SDS011;35723;51.194;5.112;2022-08-11T18:46:44;14.25;;;4.28;;
49828;SDS011;35723;51.194;5.112;2022-08-11T18:49:36;11.52;;;4.13;;
49828;SDS011;35723;51.194;5.112;2022-08-11T18:52:23;12.80;;;4.25;;
49828;SDS011;35723;51.194;5.112;2022-08-11T18:55:12;13.50;;;4.00;;
49828;SDS011;35723;51.194;5.112;2022-08-11T18:58:01;10.63;;;3.80;;
49828;SDS011;35723;51.194;5.112;2022-08-11T19:00:48;15.02;;;3.70;;
49828;SDS011;35723;51.194;5.112;2022-08-11T19:03:36;13.80;;;3.72;;
49828;SDS011;35723;51.194;5.112;2022-08-11T19:06:22;11.40;;;3.88;;
49828;SDS011;35723;51.194;5.112;2022-08-11T19:09:08;11.77;;;4.18;;
49828;SDS011;35723;51.194;5.112;2022-08-11T19:11:54;16.48;;;4.60;;
49828;SDS011;35723;51.194;5.112;2022-08-11T19:14:40;9.48;;;4.10;;
49828;SDS011;35723;51.194;5.112;2022-08-11T19:17:27;11.27;;;4.55;;
49828;SDS011;35723;51.194;5.112;2022-08-11T19:20:14;14.15;;;4.93;;
49828;SDS011;35723;51.194;5.112;2022-08-11T19:23:01;15.38;;;4.60;;
49828;SDS011;35723;51.194;5.112;2022-08-11T19:25:47;14.75;;;4.57;;
49828;SDS011;35723;51.194;5.112;2022-08-11T19:28:33;14.32;;;4.30;;
49828;SDS011;35723;51.194;5.112;2022-08-11T19:31:19;17.35;;;4.20;;
49828;SDS011;35723;51.194;5.112;2022-08-11T19:34:04;13.98;;;4.03;;
49828;SDS011;35723;51.194;5.112;2022-08-11T19:36:49;14.13;;;3.90;;
49828;SDS011;35723;51.194;5.112;2022-08-11T19:39:36;12.75;;;3.85;;
49828;SDS011;35723;51.194;5.112;2022-08-11T19:42:22;12.98;;;3.63;;
49828;SDS011;35723;51.194;5.112;2022-08-11T19:45:07;13.90;;;3.65;;
49828;SDS011;35723;51.194;5.112;2022-08-11T19:47:52;7.97;;;3.50;;